Tiempo atmosférico en la estación meteorológica de Sariñena, Depósito Agua, Huesca (302 m.)



Fecha
DESCASC
Temp. máxima en grados centígrados (hora)
DESCASC
Temp. mínima en grados centígrados (hora)
DESCASC
Temp. media en grados centígrados
DESCASC
Racha de viento máxima en m/sg (hora)
DESCASC
Velocidad máxima media en intervalos de 10 minutos(hora)
DESCASC
Precipitaciones diarias en mm
DESCASC
Precipitaciones de 00:00 a 06:00 en mm
DESCASC
Precipitaciones de 06:00 a 12:00 en mm
DESCASC
Precipitaciones de 12:00 a 18:00 en mm
DESCASC
Precipitaciones de 18:00 a 24:00 en mm
DESCASC
19-09-2019 29.9 (16:50) 16.5 (07:40) 23.2 10 (22:50) 5.28 (23:10) 0.2 0.2 0 0 0
18-09-2019 30.7 (17:00) 16.3 (06:50) 23.5 14.44 (18:50) 7.22 (19:00) 0.2 0 0 0 0.2
17-09-2019 31.1 (17:00) 15.7 (00:00) 23.4 3.61 (15:10) 1.94 (18:10) 0 0 0 0 0
16-09-2019 29.8 (16:50) 17.3 (00:00) 23.5 4.72 (17:00) 2.5 (15:40) 0 0 0 0 0
15-09-2019 27.6 (15:40) 15.3 (00:00) 21.5 6.67 (17:10) 3.89 (15:30) 1.6 0 0 1.4 0.2
14-09-2019 28.2 (16:40) 13.7 (00:00) 21 8.61 (16:50) 5.56 (16:50) 0.4 0.2 0 0 0.2
13-09-2019 27.2 (19:00) 13.4 (00:00) 20.3 6.67 (22:50) 3.61 (23:00) 0.4 0 0 0 0.4
12-09-2019 29.5 (19:00) 12.7 (00:00) 21.1 6.11 (03:00) 4.17 (03:00) 0 0 0 0 0
11-09-2019 27.3 (16:20) 14.1 (00:00) 20.7 6.94 (08:20) 4.44 (17:10) 0 0 0 0 0
10-09-2019 21.6 (14:40) 14.2 (08:10) 17.9 16.67 (09:50) 10.56 (12:50) 1.6 0 0 1.6 0
09-09-2019 26.4 (16:20) 9.8 (08:10) 18.1 4.72 (13:40) 2.78 (19:00) 0 0 0 0 0
08-09-2019 26.8 (16:50) 10 (00:00) 18.4 10 (16:50) 5.28 (17:00) 0 0 0 0 0
07-09-2019 26.5 (18:40) 10.5 (00:00) 18.5 5.83 (13:50) 3.06 (11:50) 0 0 0 0 0
06-09-2019 26.5 (18:20) 11.7 (00:00) 19.1 7.22 (14:20) 3.61 (21:00) 0 0 0 0 0
05-09-2019 27 (15:50) 13.8 (00:00) 20.4 12.22 (18:20) 6.94 (16:30) 0 0 0 0 0
04-09-2019 30.9 (18:20) 13.2 (00:00) 22 10 (22:00) 5.56 (21:30) 0 0 0 0 0
03-09-2019 28.9 (18:50) 12.7 (00:00) 20.8 5.28 (11:00) 2.78 (10:10) 0 0 0 0 0
02-09-2019 27.6 (18:00) 15.2 (00:00) 21.4 8.89 (17:00) 5.56 (10:20) 0 0 0 0 0
01-09-2019 29.5 (17:00) 18.4 (00:00) 23.9 8.33 (21:20) 5 (21:40) 0.2 0.2 0 0 0
31-08-2019 32.2 (14:10) 17.8 (00:00) 25 10 (15:40) 6.11 (17:10) 0 0 0 0 0
30-08-2019 34 (16:30) 18.3 (00:00) 26.1 4.44 (00:10) 2.5 (18:30) 0 0 0 0 0
29-08-2019 32.9 (16:20) 17.6 (00:00) 25.3 6.11 (22:30) 2.78 (22:30) 0 0 0 0 0
28-08-2019 31.3 (19:00) 16.6 (00:00) 23.9 3.89 (15:30) 1.94 (18:40) 0 0 0 0 0
27-08-2019 29 (16:10) 19.6 (00:00) 24.3 11.67 (18:20) 7.22 (18:20) 1.2 0.4 0.8 0 0
26-08-2019 29.7 (17:00) 17 (00:00) 23.4 11.67 (17:20) 6.11 (17:10) 0 0 0 0 0
25-08-2019 33 (18:30) 17.6 (00:00) 25.3 7.22 (23:40) 3.61 (02:00) 0 0 0 0 0
24-08-2019 33 (19:10) 17.1 (00:00) 25.1 4.72 (12:00) 2.5 (16:00) 0 0 0 0 0
23-08-2019 31.7 (18:30) 16.2 (00:00) 24 4.72 (16:50) 2.5 (11:50) 0 0 0 0 0

Gráficas

Temp. máximas Temp. mínimas Temp. medias Precipitaciones Rachas de viento máximas Velocidades máximas media en intervalos de 10 minutos

Datos horarios

Fecha y hora oficial Temperatura (ºC) Velocidad del viento (km/h) Dirección del viento Racha (km/h) Dirección de racha Precipitación (mm) Presión (hPa) Tendencia (hPa) Humedad (%)
2019-09-21 23:00:00 21.2 13 Este 24 Este 0 -- -- 82
2019-09-21 22:00:00 21.7 13 Este 28 Sudeste 0 -- -- 75
2019-09-21 21:00:00 22.6 14 Este 24 Este 0 -- -- 69
2019-09-21 20:00:00 23.9 8 Este 17 Este 0 -- -- 60
2019-09-21 19:00:00 25.5 8 Este 16 Nordeste 0 -- -- 50
2019-09-21 18:00:00 26.4 9 Este 19 Nordeste 0 -- -- 48
2019-09-21 17:00:00 27.4 10 Este 19 Sudeste 0 -- -- 45
2019-09-21 16:00:00 27 11 Sudeste 20 Sudeste 0 -- -- 47
2019-09-21 15:00:00 26.1 9 Este 18 Sudeste 0 -- -- 53
2019-09-21 14:00:00 25.4 8 Sudeste 17 Este 0 -- -- 56
2019-09-21 13:00:00 24.4 8 Este 24 Este 0 -- -- 65
2019-09-21 12:00:00 23.2 14 Este 24 Sudeste 0 -- -- 70
2019-09-21 11:00:00 21.3 11 Este 22 Este 0 -- -- 76
2019-09-21 10:00:00 19.5 9 Este 18 Este 0 -- -- 84
2019-09-21 09:00:00 17.7 7 Este 23 Este 0 -- -- 92
2019-09-21 08:00:00 17.7 9 Sudeste 22 Este 0.2 -- -- 91
2019-09-21 07:00:00 18 9 Este 23 Este 0.2 -- -- 89
2019-09-21 06:00:00 18.8 12 Este 24 Este 0.2 -- -- 85
2019-09-21 05:00:00 18.8 14 Este 24 Sudeste 0 -- -- 85
2019-09-21 04:00:00 18.1 9 Este 19 Este 0 -- -- 87
2019-09-21 03:00:00 18.4 12 Este 20 Este 0 -- -- 85
2019-09-21 02:00:00 18.9 11 Este 19 Sudeste 0 -- -- 82
2019-09-21 01:00:00 18.9 8 Este 21 Este 0 -- -- 75
2019-09-21 00:00:00 19.5 10 Este 24 Este 0 -- -- 74
2019-09-20 23:00:00 20.4 18 Sudeste 29 Sudeste 0 -- -- 69
2019-09-20 22:00:00 21 17 Este 31 Sudeste 0 -- -- 65
2019-09-20 21:00:00 22 18 Sudeste 36 Sudeste 0 -- -- 66
2019-09-20 20:00:00 23 19 Sudeste 43 Sudeste 0 -- -- 65
2019-09-20 19:00:00 24.7 15 Sudeste 34 Este 0 -- -- 61
2019-09-20 18:00:00 26.2 16 Este 33 Este 0 -- -- 54
2019-09-20 17:00:00 26.3 15 Este 32 Este 0 -- -- 53
2019-09-20 16:00:00 27.9 17 Este 36 Este 0 -- -- 48
2019-09-20 15:00:00 27 19 Este 31 Este 0 -- -- 49
2019-09-20 14:00:00 25.7 16 Este 33 Este 0 -- -- 55
2019-09-20 13:00:00 24.7 18 Este 30 Este 0 -- -- 60
2019-09-20 12:00:00 23.9 19 Este 31 Este 0 -- -- 64
2019-09-20 11:00:00 22.4 12 Este 22 Este 0 -- -- 64
2019-09-20 10:00:00 20.6 12 Este 18 Sudeste 0 -- -- 68
2019-09-20 09:00:00 18 4 Este 10 Nordeste 0 -- -- 81
2019-09-20 08:00:00 16.9 2 Nordeste 10 Este 0 -- -- 83
2019-09-20 07:00:00 17.4 6 Este 12 Sudeste 0 -- -- 81
2019-09-20 06:00:00 17.4 8 Sudeste 16 Sudeste 0 -- -- 82
2019-09-20 05:00:00 17.9 6 Este 11 Este 0 -- -- 80
2019-09-20 04:00:00 18.5 6 Sudeste 15 Sudeste 0 -- -- 78
2019-09-20 03:00:00 18.9 8 Este 13 Este 0 -- -- 76
2019-09-20 02:00:00 19.2 5 Nordeste 12 Este 0 -- -- 75
2019-09-20 01:00:00 19.7 6 Nordeste 22 Este 0 -- -- 75
2019-09-20 00:00:00 20.2 12 Este 32 Este 0 -- -- 75
2019-09-19 23:00:00 21 18 Este 36 Este 0 -- -- 70
2019-09-19 22:00:00 22.2 10 Sudeste 19 Este 0 -- -- 65
2019-09-19 21:00:00 23.5 9 Sudeste 21 Este 0 -- -- 63
2019-09-19 20:00:00 26 8 Este 14 Este 0 -- -- 52
2019-09-19 19:00:00 28.3 6 Este 14 Este 0 -- -- 46
2019-09-19 18:00:00 28.6 5 Este 13 Este 0 -- -- 45
2019-09-19 17:00:00 29.8 6 Sudeste 11 Sudeste 0 -- -- 43
2019-09-19 16:00:00 29.2 6 Sudeste 11 Sudeste 0 -- -- 43
2019-09-19 15:00:00 28 5 Nordeste 14 Sudeste 0 -- -- 44
2019-09-19 14:00:00 27 5 Este 13 Este 0 -- -- 51
2019-09-19 13:00:00 25.7 7 Este 12 Este 0 -- -- 56
2019-09-19 12:00:00 23.2 3 Este 8 Nordeste 0 -- -- 63
2019-09-19 11:00:00 20.9 2 Noroeste 6 Oeste 0 -- -- 70
2019-09-19 10:00:00 18.4 2 Sudoeste 6 Noroeste 0 -- -- 83
2019-09-19 09:00:00 17.3 3 Noroeste 8 Oeste 0 -- -- 88
2019-09-19 08:00:00 16.6 3 Oeste 5 Oeste 0 -- -- 90
2019-09-19 07:00:00 16.8 0 Calma 12 Oeste 0 -- -- 89
2019-09-19 06:00:00 17.6 6 Oeste 14 Oeste 0 -- -- 87
2019-09-19 05:00:00 18.3 4 Oeste 12 Oeste 0 -- -- 83
2019-09-19 04:00:00 18.5 2 Noroeste 13 Norte 0 -- -- 81
2019-09-19 03:00:00 18.6 10 Norte 15 Oeste 0 -- -- 81
2019-09-19 02:00:00 19.2 2 Norte 9 Oeste 0.2 -- -- 83
2019-09-19 01:00:00 19.2 2 Sur 13 Sudeste 0 -- -- 77
2019-09-19 00:00:00 20 0 Calma 11 Noroeste 0 -- -- 71
2019-09-18 23:00:00 20.4 0 Calma 9 Norte 0 -- -- 71
2019-09-18 22:00:00 21.2 0 Calma 10 Oeste 0 -- -- 69
2019-09-18 21:00:00 22.3 5 Sudoeste 10 Sur 0 -- -- 61
2019-09-18 20:00:00 22.7 6 Sudeste 32 Sudeste 0.2 -- -- 65
2019-09-18 19:00:00 25.8 26 Sudeste 52 Sudeste 0 -- -- 48
2019-09-18 18:00:00 29.2 3 Este 12 Norte 0 -- -- 44
2019-09-18 17:00:00 30.7 5 Noroeste 13 Norte 0 -- -- 39
2019-09-18 16:00:00 29.9 4 Noroeste 14 Noroeste 0 -- -- 44
2019-09-18 15:00:00 29.1 7 Noroeste 15 Noroeste 0 -- -- 47
2019-09-18 14:00:00 28.4 3 Sudoeste 14 Noroeste 0 -- -- 50
2019-09-18 13:00:00 26.7 6 Noroeste 12 Noroeste 0 -- -- 53
2019-09-18 12:00:00 25 3 Noroeste 10 Noroeste 0 -- -- 60
2019-09-18 11:00:00 22.6 6 Noroeste 11 Oeste 0 -- -- 68
2019-09-18 10:00:00 20.7 4 Noroeste 8 Noroeste 0 -- -- 71
2019-09-18 09:00:00 18.1 0 Calma 10 Norte 0 -- -- 79
2019-09-18 08:00:00 16.4 8 Norte 14 Norte 0 -- -- 82
2019-09-18 07:00:00 16.3 4 Norte 7 Norte 0 -- -- 83
2019-09-18 06:00:00 -- 2 Norte 4 Norte 0 -- -- --
2019-09-18 05:00:00 17.4 0 Calma 6 Oeste 0 -- -- 80
2019-09-18 04:00:00 18.3 2 Sudoeste 19 Norte 0 -- -- 78
2019-09-18 03:00:00 19.6 12 Norte 23 Norte 0 -- -- 72
2019-09-18 02:00:00 20.3 9 Norte 15 Norte 0 -- -- 69
2019-09-18 01:00:00 20.4 4 Norte 16 Sudeste 0 -- -- 69
2019-09-18 00:00:00 20.9 4 Sudeste 7 Sudeste 0 -- -- 68
2019-09-17 23:00:00 21.5 0 Calma 8 Este 0 -- -- 69
2019-09-17 22:00:00 23.1 3 Sur 6 Sudeste 0 -- -- 64
2019-09-17 21:00:00 24.9 3 Sudoeste 6 Sudoeste 0 -- -- 61
2019-09-15 18:00:00 -- -- -- -- -- -- -- -- --
2019-09-15 17:00:00 22.9 9 Oeste 15 Oeste 1.4 -- -- 69
2019-09-15 16:00:00 27.2 6 Sudeste 22 Nordeste 0 -- -- 42
2019-09-15 15:00:00 27.1 10 Este 21 Sudeste 0 -- -- 38
2019-09-15 14:00:00 26.9 9 Este 19 Este 0 -- -- 41
2019-09-15 13:00:00 26.4 10 Este 21 Sudeste 0 -- -- 43
2019-09-15 12:00:00 24.9 7 Sudeste 15 Sudeste 0 -- -- 57
2019-09-15 11:00:00 21.7 4 Noroeste 11 Oeste 0 -- -- 70
2019-09-15 10:00:00 19.7 3 Noroeste 8 Noroeste 0 -- -- 78
2019-09-15 09:00:00 17 0 Calma 8 Oeste 0 -- -- 90
2019-09-15 08:00:00 15.5 3 Sudoeste 7 Oeste 0 -- -- 91
2019-09-15 07:00:00 16.6 2 Sudoeste 10 Norte 0 -- -- 86
2019-09-15 06:00:00 17 3 Norte 6 Norte 0 -- -- 84
2019-09-15 05:00:00 17.6 0 Calma 9 Este 0 -- -- 88
2019-09-15 04:00:00 17.6 4 Nordeste 6 Norte 0 -- -- 90
2019-09-15 03:00:00 17.7 2 Sudoeste 5 Sudoeste 0 -- -- 89
2019-09-15 02:00:00 18.4 3 Sudoeste 6 Oeste 0 -- -- 87
2019-09-15 01:00:00 19.4 0 Calma 9 Norte 0 -- -- 81
2019-09-15 00:00:00 19.8 3 Norte 9 Norte 0 -- -- 77
2019-09-14 23:00:00 19.8 2 Noroeste 8 Oeste 0 -- -- 80
2019-09-14 22:00:00 20.4 4 Noroeste 6 Noroeste 0.2 -- -- 77
2019-09-14 21:00:00 21.8 3 Nordeste 8 Nordeste 0 -- -- 64
2019-09-14 20:00:00 22.9 5 Norte 13 Norte 0 -- -- 59
2019-09-14 19:00:00 24.2 4 Noroeste 14 Sur 0 -- -- 55
2019-09-14 18:00:00 24.8 9 Sur 21 Este 0 -- -- 54
2019-09-14 17:00:00 26.2 18 Este 31 Sudeste 0 -- -- 43
2019-09-14 16:00:00 26.7 9 Sudeste 18 Sudeste 0 -- -- 49
2019-09-14 15:00:00 27 11 Sudeste 20 Sudeste 0 -- -- 43
2019-09-14 14:00:00 25.9 10 Este 20 Este 0 -- -- 50
2019-09-14 13:00:00 23.4 6 Nordeste 11 Norte 0 -- -- 63
2019-09-14 12:00:00 20.7 4 Norte 9 Norte 0 -- -- 76
2019-09-14 11:00:00 18.3 5 Noroeste 11 Oeste 0 -- -- 86
2019-09-14 10:00:00 16.6 4 Noroeste 8 Oeste 0 -- -- 94
2019-09-14 09:00:00 14.8 3 Noroeste 9 Norte 0 -- -- 96
2019-09-14 08:00:00 13.8 2 Nordeste 5 Oeste 0 -- -- 95
2019-09-14 07:00:00 14.3 2 Noroeste 6 Noroeste 0 -- -- 95
2019-09-14 06:00:00 -- -- -- -- -- -- -- -- --
2019-09-14 05:00:00 15.2 3 Noroeste 8 Noroeste 0 -- -- 94
2019-09-14 04:00:00 15.7 4 Oeste 7 Oeste 0 -- -- 92
2019-09-14 03:00:00 16.3 5 Oeste 10 Noroeste 0 -- -- 91
2019-09-14 02:00:00 17.1 6 Noroeste 19 Noroeste 0 -- -- 89
2019-09-14 01:00:00 17.7 3 Norte 22 Este 0.2 -- -- 88
2019-09-14 00:00:00 18.3 9 Este 21 Sudeste 0.4 -- -- 82
2019-09-13 23:00:00 20.1 13 Sudeste 24 Sudeste 0 -- -- 73
2019-09-13 22:00:00 20.8 3 Nordeste 7 Nordeste 0 -- -- 61
2019-09-13 21:00:00 22.4 3 Sudeste 14 Este 0 -- -- 54
2019-09-13 20:00:00 25.1 6 Sudeste 16 Sudeste 0 -- -- 47
2019-09-13 19:00:00 27.2 4 Sudeste 8 Este 0 -- -- 45
2019-09-13 18:00:00 26.6 6 Sudeste 19 Sur 0 -- -- 43
2019-09-13 17:00:00 26.7 3 Nordeste 12 Norte 0 -- -- 43
2019-09-13 16:00:00 25.4 5 Nordeste 12 Sudeste 0 -- -- 47
2019-09-13 15:00:00 22.9 5 Este 15 Este 0 -- -- 54
2019-09-13 14:00:00 23.8 6 Este 14 Sudeste 0 -- -- 51
2019-09-13 13:00:00 23.5 9 Sudeste 20 Este 0 -- -- 56
2019-09-13 12:00:00 20.9 7 Sudeste 12 Sudeste 0 -- -- 69
2019-09-13 11:00:00 19 5 Oeste 13 Sudoeste 0 -- -- 73
2019-09-13 10:00:00 17.5 5 Oeste 11 Oeste 0 -- -- 77
2019-09-13 09:00:00 15.2 4 Noroeste 9 Noroeste 0 -- -- 82
2019-09-13 08:00:00 13.6 4 Noroeste 6 Noroeste 0 -- -- 87
2019-09-13 07:00:00 13.9 4 Oeste 10 Norte 0 -- -- 86
2019-09-13 06:00:00 14.7 4 Norte 6 Noroeste 0 -- -- 85
2019-09-13 05:00:00 15 4 Oeste 7 Sudoeste 0 -- -- 85
2019-09-13 04:00:00 16 4 Sudoeste 16 Nordeste 0 -- -- 78
2019-09-13 03:00:00 17.5 6 Nordeste 13 Este 0 -- -- 73
2019-09-13 02:00:00 16.9 6 Nordeste 9 Nordeste 0 -- -- 74
2019-09-13 01:00:00 17.5 3 Este 9 Este 0 -- -- 74
2019-09-13 00:00:00 18.4 3 Este 10 Sudeste 0 -- -- 71
2019-09-12 23:00:00 19.7 0 Calma 4 Oeste 0 -- -- 68
2019-09-12 22:00:00 21.6 3 Sudeste 9 Sudoeste 0 -- -- 63
2019-09-12 21:00:00 24 5 Norte 7 Norte 0 -- -- 48
2019-09-12 20:00:00 27.6 3 Norte 7 Sudoeste 0 -- -- 39
2019-09-12 19:00:00 29.5 3 Sudoeste 11 Sur 0 -- -- 36
2019-09-12 18:00:00 28.2 4 Sur 10 Sudoeste 0 -- -- 39
2019-09-12 17:00:00 28.7 3 Norte 14 Oeste 0 -- -- 37
2019-09-12 16:00:00 27.7 7 Noroeste 12 Oeste 0 -- -- 38
2019-09-12 15:00:00 27.1 6 Oeste 12 Noroeste 0 -- -- 36
2019-09-12 14:00:00 25.5 4 Oeste 10 Oeste 0 -- -- 46
2019-09-12 13:00:00 23.4 4 Norte 12 Norte 0 -- -- 52
2019-09-12 12:00:00 20.9 6 Noroeste 14 Noroeste 0 -- -- 55
2019-09-12 11:00:00 18.8 5 Noroeste 14 Oeste 0 -- -- 61
2019-09-12 10:00:00 16.2 7 Noroeste 15 Noroeste 0 -- -- 69
2019-09-12 09:00:00 14.2 8 Oeste 15 Noroeste 0 -- -- 77
2019-09-12 08:00:00 13.1 10 Noroeste 18 Noroeste 0 -- -- 80
2019-09-12 07:00:00 13.1 8 Oeste 18 Noroeste 0 -- -- 81
2019-09-12 06:00:00 13.9 8 Noroeste 20 Oeste 0 -- -- 78
2019-09-12 05:00:00 14.1 8 Noroeste 18 Noroeste 0 -- -- 77
2019-09-12 04:00:00 13.9 9 Noroeste 20 Noroeste 0 -- -- 79
2019-09-12 03:00:00 -- 15 Oeste 22 Oeste 0 -- -- --
2019-09-12 02:00:00 15.4 11 Noroeste 21 Oeste 0 -- -- 73
2019-09-12 01:00:00 16.3 12 Oeste 21 Oeste 0 -- -- 69
2019-09-12 00:00:00 17.3 5 Noroeste 14 Oeste 0 -- -- 79
2019-09-11 23:00:00 18.7 0 Calma 9 Sur 0 -- -- 71
2019-09-11 22:00:00 19.4 5 Este 10 Sudeste 0 -- -- 70
2019-09-11 21:00:00 22 5 Noroeste 8 Noroeste 0 -- -- 61
2019-09-11 20:00:00 23.7 6 Sudeste 15 Sudeste 0 -- -- 52
2019-09-11 19:00:00 24 10 Sudeste 21 Sudeste 0 -- -- 51
2019-09-11 18:00:00 24.7 9 Sudeste 24 Este 0 -- -- 45
2019-09-11 17:00:00 26.3 14 Sudeste 24 Sudeste 0 -- -- 39
2019-09-11 16:00:00 27 15 Sudeste 22 Sudeste 0 -- -- 37
2019-09-11 15:00:00 26.2 9 Sudeste 19 Este 0 -- -- 38
2019-09-11 14:00:00 24.5 9 Sudeste 21 Sudeste 0 -- -- 45
2019-09-11 13:00:00 21.8 9 Sudeste 13 Sudeste 0 -- -- 53
2019-09-11 12:00:00 21.3 3 Sudeste 6 Sudeste 0 -- -- 54
2019-09-11 11:00:00 18.6 3 Sudoeste 13 Noroeste 0 -- -- 60
2019-09-11 10:00:00 16.1 4 Noroeste 12 Noroeste 0 -- -- 64
2019-09-11 09:00:00 14.6 3 Noroeste 25 Noroeste 0 -- -- 69
2019-09-11 08:00:00 15 7 Noroeste 19 Oeste 0 -- -- 66
2019-09-11 07:00:00 15 7 Noroeste 17 Oeste 0 -- -- 67
2019-09-11 06:00:00 14.9 5 Noroeste 13 Noroeste 0 -- -- 67
2019-09-11 05:00:00 14.9 8 Noroeste 15 Noroeste 0 -- -- 65
2019-09-11 04:00:00 14.3 4 Noroeste 13 Noroeste 0 -- -- 69
2019-09-11 03:00:00 14.5 3 Noroeste 19 Noroeste 0 -- -- 67
2019-09-11 02:00:00 14.1 9 Oeste 21 Noroeste 0 -- -- 67
2019-09-11 01:00:00 15 9 Oeste 18 Noroeste 0 -- -- 64
2019-09-11 00:00:00 15.4 11 Oeste 23 Oeste 0 -- -- 62
2019-09-10 23:00:00 15.9 8 Oeste 17 Oeste 0 -- -- 66
2019-09-10 22:00:00 16.1 5 Este 8 Nordeste 0 -- -- 68
2019-09-10 21:00:00 16.5 6 Norte 10 Nordeste 0 -- -- 63
2019-09-10 20:00:00 17.5 6 Este 22 Este 0 -- -- 59
2019-09-10 19:00:00 19.1 10 Oeste 28 Oeste 0 -- -- 50
2019-09-10 18:00:00 19.7 9 Oeste 24 Oeste 0 -- -- 51
2019-09-10 17:00:00 17.5 8 Sur 18 Sudoeste 0 -- -- 71
2019-09-10 16:00:00 15 5 Sudeste 36 Nordeste 1.6 -- -- 77
2019-09-10 15:00:00 19.2 18 Nordeste 51 Noroeste 0 -- -- 47
2019-09-10 14:00:00 20.1 29 Oeste 56 Oeste 0 -- -- 43
2019-09-10 13:00:00 20.6 32 Oeste 55 Oeste 0 -- -- 40
2019-09-10 12:00:00 19.2 34 Oeste 58 Oeste 0 -- -- 42
2019-09-10 11:00:00 17.5 34 Oeste 59 Oeste 0 -- -- 48
2019-09-10 10:00:00 15.7 33 Oeste 60 Oeste 0 -- -- 56
2019-09-10 09:00:00 14.8 26 Oeste 46 Oeste 0 -- -- 61
2019-09-10 08:00:00 14.4 22 Oeste 48 Noroeste 0 -- -- 63
2019-09-10 07:00:00 15.3 25 Oeste 48 Oeste 0 -- -- 58
2019-09-10 06:00:00 16.1 22 Oeste 42 Oeste 0 -- -- 64
2019-09-10 05:00:00 17.2 24 Oeste 45 Oeste 0 -- -- 61
2019-09-10 04:00:00 17.6 23 Oeste 38 Oeste 0 -- -- 56
2019-09-10 03:00:00 17.5 12 Oeste 23 Oeste 0 -- -- 52
2019-09-10 02:00:00 17.7 13 Oeste 23 Oeste 0 -- -- 63
2019-09-10 01:00:00 18.2 6 Noroeste 13 Oeste 0 -- -- 67
2019-09-10 00:00:00 19.2 5 Noroeste 13 Noroeste 0 -- -- 61
2019-09-09 23:00:00 19.5 4 Norte 8 Sudoeste 0 -- -- 62
2019-09-09 22:00:00 20.8 0 Calma 6 Norte 0 -- -- 55
2019-09-09 21:00:00 21.9 5 Norte 6 Norte 0 -- -- 49
2019-09-09 20:00:00 23.1 2 Nordeste 11 Este 0 -- -- 46
2019-09-09 19:00:00 24.1 10 Este 17 Este 0 -- -- 41
2019-09-09 18:00:00 25.5 4 Nordeste 15 Noroeste 0 -- -- 34
2019-09-09 17:00:00 26 6 Nordeste 14 Nordeste 0 -- -- 35
2019-09-09 16:00:00 26 5 Sudeste 14 Este 0 -- -- 37
2019-09-09 15:00:00 25 4 Sur 14 Sudeste 0 -- -- 39
2019-09-09 14:00:00 23.8 8 Sudeste 17 Este 0 -- -- 43
2019-09-09 13:00:00 21.6 5 Sudeste 13 Sur 0 -- -- 47
2019-09-09 12:00:00 18.7 3 Este 12 Este 0 -- -- 55
2019-09-09 11:00:00 16.1 4 Sur 7 Oeste 0 -- -- 64
2019-09-09 10:00:00 12.9 3 Noroeste 9 Noroeste 0 -- -- 75
2019-09-09 09:00:00 11.3 4 Noroeste 9 Noroeste 0 -- -- 83
2019-09-09 08:00:00 9.9 5 Noroeste 15 Oeste 0 -- -- 83
2019-09-09 07:00:00 10.1 3 Noroeste 9 Noroeste 0 -- -- 85
2019-09-09 06:00:00 -- 2 Oeste 9 Noroeste 0 -- -- --
2019-09-09 05:00:00 11.3 3 Oeste 10 Oeste 0 -- -- 79
2019-09-09 04:00:00 12.3 4 Oeste 12 Noroeste 0 -- -- 75
2019-09-09 03:00:00 13.4 4 Noroeste 8 Noroeste 0 -- -- 72
2019-09-09 02:00:00 13.9 4 Noroeste 14 Norte 0 -- -- 68
2019-09-09 01:00:00 14.5 6 Norte 11 Nordeste 0 -- -- 63
2019-09-09 00:00:00 14.5 5 Nordeste 9 Sudeste 0 -- -- 60
2019-09-08 23:00:00 16.8 3 Noroeste 16 Oeste 0 -- -- 52
2019-09-08 22:00:00 18.9 7 Oeste 14 Sudoeste 0 -- -- 42
2019-09-08 21:00:00 20.3 9 Oeste 19 Oeste 0 -- -- 40
2019-09-08 20:00:00 23.2 7 Oeste 21 Oeste 0 -- -- 34
2019-09-08 19:00:00 26.1 12 Oeste 28 Oeste 0 -- -- 26
2019-09-08 18:00:00 26.6 16 Oeste 28 Oeste 0 -- -- 29
2019-09-08 17:00:00 26.5 19 Oeste 36 Oeste 0 -- -- 27
2019-09-08 16:00:00 26.4 16 Oeste 32 Oeste 0 -- -- 32
2019-09-08 15:00:00 25.9 9 Oeste 22 Oeste 0 -- -- 36
2019-09-08 14:00:00 24.4 10 Oeste 27 Oeste 0 -- -- 43
2019-09-08 13:00:00 22.4 9 Noroeste 19 Noroeste 0 -- -- 51
2019-09-08 12:00:00 19.8 6 Noroeste 14 Noroeste 0 -- -- 57
2019-09-08 11:00:00 17.3 8 Norte 13 Norte 0 -- -- 65
2019-09-08 10:00:00 14.3 4 Noroeste 10 Norte 0 -- -- 77
2019-09-08 09:00:00 11.9 4 Noroeste 10 Noroeste 0 -- -- 85
2019-09-08 08:00:00 11.3 6 Oeste 12 Oeste 0 -- -- 89
2019-09-08 07:00:00 10.3 0 Calma 7 Oeste 0 -- -- 86
2019-09-08 06:00:00 11.2 3 Noroeste 8 Noroeste 0 -- -- 87
2019-09-08 05:00:00 11.6 2 Noroeste 8 Oeste 0 -- -- 83
2019-09-08 04:00:00 12.5 5 Noroeste 9 Oeste 0 -- -- 80
2019-09-08 03:00:00 13 5 Noroeste 11 Noroeste 0 -- -- 79
2019-09-08 02:00:00 13.8 8 Noroeste 12 Noroeste 0 -- -- 75
2019-09-08 01:00:00 15.4 4 Noroeste 7 Noroeste 0 -- -- 66
2019-09-08 00:00:00 17.2 3 Noroeste 8 Noroeste 0 -- -- 56
2019-09-07 23:00:00 18.1 4 Noroeste 11 Oeste 0 -- -- 55
2019-09-07 22:00:00 19 5 Oeste 10 Sudoeste 0 -- -- 59
2019-09-07 21:00:00 21.4 3 Sudeste 6 Sudeste 0 -- -- 50
2019-09-07 20:00:00 25 3 Sudeste 6 Sudeste 0 -- -- 41
2019-09-07 19:00:00 26.3 3 Este 9 Nordeste 0 -- -- 34
2019-09-07 18:00:00 25.5 5 Noroeste 12 Noroeste 0 -- -- 36
2019-09-07 17:00:00 25.2 6 Oeste 13 Noroeste 0 -- -- 34
2019-09-07 16:00:00 24.3 6 Noroeste 15 Noroeste 0 -- -- 40
2019-09-07 15:00:00 23.3 8 Noroeste 17 Oeste 0 -- -- 41
2019-09-07 14:00:00 22.1 8 Noroeste 21 Oeste 0 -- -- 44
2019-09-07 13:00:00 20.3 6 Oeste 16 Sudoeste 0 -- -- 50
2019-09-07 12:00:00 18.2 10 Oeste 18 Oeste 0 -- -- 55
2019-09-07 11:00:00 15.7 8 Oeste 19 Oeste 0 -- -- 65
2019-09-07 10:00:00 13.7 10 Oeste 15 Oeste 0 -- -- 72
2019-09-07 09:00:00 11.6 4 Oeste 10 Oeste 0 -- -- 82
2019-09-07 08:00:00 10.5 4 Oeste 10 Oeste 0 -- -- 85
2019-09-07 07:00:00 11 4 Oeste 8 Noroeste 0 -- -- 83
2019-09-07 06:00:00 11.7 2 Noroeste 7 Noroeste 0 -- -- 81
2019-09-07 05:00:00 11.9 4 Noroeste 8 Norte 0 -- -- 80
2019-09-07 04:00:00 12.4 2 Oeste 8 Oeste 0 -- -- 77
2019-09-07 03:00:00 12.5 2 Noroeste 12 Noroeste 0 -- -- 76
2019-09-07 02:00:00 13 6 Noroeste 12 Oeste 0 -- -- 74
2019-09-07 01:00:00 13.9 5 Noroeste 11 Noroeste 0 -- -- 70
2019-09-07 00:00:00 15.7 6 Noroeste 10 Oeste 0 -- -- 59
2019-09-06 23:00:00 16.5 6 Oeste 14 Oeste 0 -- -- 56
2019-09-06 22:00:00 17.9 8 Oeste 22 Oeste 0 -- -- 51
2019-09-06 21:00:00 20.1 13 Oeste 22 Oeste 0 -- -- 42
2019-09-06 20:00:00 23.2 10 Oeste 23 Oeste 0 -- -- 37
2019-09-06 19:00:00 25.9 11 Oeste 23 Oeste 0 -- -- 30
2019-09-06 18:00:00 26 9 Oeste 19 Oeste 0 -- -- 30
2019-09-06 17:00:00 25.7 5 Oeste 21 Oeste 0 -- -- 32
2019-09-06 16:00:00 25.5 8 Oeste 24 Oeste 0 -- -- 34
2019-09-06 15:00:00 24.6 10 Oeste 26 Oeste 0 -- -- 34
2019-09-06 14:00:00 23.3 9 Oeste 22 Noroeste 0 -- -- 39
2019-09-06 13:00:00 21.5 11 Noroeste 21 Noroeste 0 -- -- 44
2019-09-06 12:00:00 19.7 12 Oeste 22 Oeste 0 -- -- 50
2019-09-06 11:00:00 17.7 11 Noroeste 19 Noroeste 0 -- -- 59
2019-09-06 10:00:00 14.9 11 Oeste 22 Oeste 0 -- -- 70
2019-09-06 09:00:00 13.2 8 Noroeste 17 Noroeste 0 -- -- 75
2019-09-06 08:00:00 12.1 6 Noroeste 15 Noroeste 0 -- -- 78
2019-09-06 07:00:00 11.8 5 Noroeste 15 Oeste 0 -- -- 79
2019-09-06 06:00:00 12.4 5 Noroeste 16 Noroeste 0 -- -- 75
2019-09-06 05:00:00 13.2 9 Noroeste 21 Noroeste 0 -- -- 71
2019-09-06 04:00:00 12.8 3 Noroeste 8 Oeste 0 -- -- 74
2019-09-06 03:00:00 12.9 6 Noroeste 13 Oeste 0 -- -- 74
2019-09-06 02:00:00 13.7 5 Noroeste 12 Noroeste 0 -- -- 69
2019-09-06 01:00:00 14.6 3 Noroeste 21 Oeste 0 -- -- 65
2019-09-06 00:00:00 15.8 10 Oeste 20 Oeste 0 -- -- 57
2019-09-05 23:00:00 16.8 12 Oeste 26 Oeste 0 -- -- 50
2019-09-05 22:00:00 18 17 Oeste 31 Oeste 0 -- -- 45
2019-09-05 21:00:00 19.4 19 Oeste 36 Oeste 0 -- -- 42
2019-09-05 20:00:00 21.6 17 Oeste 37 Oeste 0 -- -- 39
2019-09-05 19:00:00 24.5 23 Oeste 44 Oeste 0 -- -- 33
2019-09-05 18:00:00 25.5 25 Oeste 44 Oeste 0 -- -- 31
2019-09-05 17:00:00 26.2 22 Oeste 40 Oeste 0 -- -- 29
2019-09-05 16:00:00 26.9 20 Oeste 39 Oeste 0 -- -- 32
2019-09-05 15:00:00 26.6 17 Oeste 35 Oeste 0 -- -- 33
2019-09-05 14:00:00 25.7 18 Oeste 33 Oeste 0 -- -- 34
2019-09-05 13:00:00 24.1 21 Oeste 37 Oeste 0 -- -- 37
2019-09-05 12:00:00 23 20 Oeste 32 Noroeste 0 -- -- 41
2019-09-05 11:00:00 21.1 19 Oeste 33 Oeste 0 -- -- 49
2019-09-05 10:00:00 17.8 6 Noroeste 13 Noroeste 0 -- -- 70
2019-09-05 09:00:00 15.6 5 Norte 12 Norte 0 -- -- 74
2019-09-05 08:00:00 14.1 5 Norte 23 Noroeste 0 -- -- 78
2019-09-05 07:00:00 14.2 9 Noroeste 21 Noroeste 0 -- -- 80
2019-09-05 06:00:00 14.9 3 Noroeste 14 Oeste 0 -- -- 74
2019-09-05 05:00:00 15.5 5 Noroeste 15 Oeste 0 -- -- 71
2019-09-05 04:00:00 15.9 9 Oeste 24 Oeste 0 -- -- 67
2019-09-05 03:00:00 16.4 13 Oeste 27 Oeste 0 -- -- 65
2019-09-05 02:00:00 17 10 Oeste 21 Oeste 0 -- -- 66
2019-09-05 01:00:00 17.6 11 Oeste 31 Oeste 0 -- -- 64
2019-09-05 00:00:00 18.8 13 Oeste 31 Oeste 0 -- -- 62
2019-09-04 23:00:00 20.3 17 Oeste 33 Oeste 0 -- -- 57
2019-09-04 22:00:00 22.6 19 Oeste 36 Oeste 0 -- -- 52
2019-09-04 21:00:00 24.7 15 Oeste 31 Oeste 0 -- -- 48
2019-09-04 20:00:00 28 7 Oeste 17 Noroeste 0 -- -- 39
2019-09-04 19:00:00 30.5 7 Noroeste 14 Noroeste 0 -- -- 36
2019-09-04 18:00:00 30.6 7 Noroeste 18 Oeste 0 -- -- 35
2019-09-04 17:00:00 30.1 8 Noroeste 19 Noroeste 0 -- -- 32
2019-09-04 16:00:00 29.8 9 Noroeste 17 Noroeste 0 -- -- 36
2019-09-04 15:00:00 29.2 6 Oeste 18 Oeste 0 -- -- 37
2019-09-04 14:00:00 27.6 5 Noroeste 12 Sudoeste 0 -- -- 45
2019-09-04 13:00:00 26 5 Sudoeste 11 Oeste 0 -- -- 51
2019-09-04 12:00:00 23.4 4 Oeste 10 Oeste 0 -- -- 59
2019-09-04 11:00:00 20.6 4 Noroeste 10 Oeste 0 -- -- 65
2019-09-04 10:00:00 18.3 4 Noroeste 8 Noroeste 0 -- -- 68
2019-09-04 09:00:00 15.9 2 Noroeste 8 Noroeste 0 -- -- 77
2019-09-04 08:00:00 13.4 4 Noroeste 10 Oeste 0 -- -- 88
2019-09-04 07:00:00 13.5 4 Norte 7 Oeste 0 -- -- 86
2019-09-04 06:00:00 14.4 3 Norte 9 Noroeste 0 -- -- 85
2019-09-04 05:00:00 14.6 2 Noroeste 7 Noroeste 0 -- -- 82
2019-09-04 04:00:00 15.3 4 Noroeste 9 Noroeste 0 -- -- 80
2019-09-04 03:00:00 15.4 5 Norte 6 Norte 0 -- -- 77
2019-09-04 02:00:00 16.6 4 Norte 8 Norte 0 -- -- 74
2019-09-04 01:00:00 17.6 7 Norte 11 Norte 0 -- -- 69
2019-09-04 00:00:00 18.5 4 Noroeste 6 Noroeste 0 -- -- 70
2019-09-03 23:00:00 20 0 Calma 6 Oeste 0 -- -- 67
2019-09-03 22:00:00 21.7 4 Este 5 Nordeste 0 -- -- 55
2019-09-03 21:00:00 24.5 3 Este 4 Este 0 -- -- 45
2019-09-03 20:00:00 28.1 3 Sudeste 6 Nordeste 0 -- -- 36
2019-09-03 19:00:00 28.8 4 Nordeste 12 Norte 0 -- -- 32
2019-09-03 18:00:00 28.6 6 Norte 13 Noroeste 0 -- -- 34
2019-09-03 17:00:00 28.2 3 Sudoeste 11 Oeste 0 -- -- 35
2019-09-03 16:00:00 27.5 3 Norte 12 Oeste 0 -- -- 36
2019-09-03 15:00:00 26.5 5 Oeste 12 Sur 0 -- -- 39
2019-09-03 14:00:00 25.2 5 Sudoeste 13 Noroeste 0 -- -- 40
2019-09-03 13:00:00 23.2 5 Oeste 14 Sudoeste 0 -- -- 49
2019-09-03 12:00:00 20.9 8 Noroeste 17 Oeste 0 -- -- 56
2019-09-03 11:00:00 18.3 9 Oeste 19 Noroeste 0 -- -- 63
2019-09-03 10:00:00 16.1 6 Noroeste 13 Oeste 0 -- -- 72
2019-09-03 09:00:00 14 4 Oeste 9 Oeste 0 -- -- 79
2019-09-03 08:00:00 12.8 3 Oeste 9 Oeste 0 -- -- 82
2019-09-03 07:00:00 12.9 4 Noroeste 10 Noroeste 0 -- -- 83
2019-09-03 06:00:00 13.6 4 Noroeste 10 Noroeste 0 -- -- 80
2019-09-03 05:00:00 13.8 4 Noroeste 9 Noroeste 0 -- -- 79
2019-09-03 04:00:00 14.2 4 Noroeste 9 Oeste 0 -- -- 79
2019-09-03 03:00:00 15.2 3 Norte 11 Norte 0 -- -- 74
2019-09-03 02:00:00 16 4 Noroeste 13 Oeste 0 -- -- 70
2019-09-03 01:00:00 17 6 Noroeste 12 Oeste 0 -- -- 66
2019-09-03 00:00:00 18 4 Noroeste 14 Oeste 0 -- -- 61
2019-09-02 23:00:00 19.2 8 Oeste 18 Oeste 0 -- -- 54
2019-09-02 22:00:00 20.7 5 Oeste 15 Oeste 0 -- -- 50
2019-09-02 21:00:00 22.3 8 Oeste 20 Oeste 0 -- -- 46
2019-09-02 20:00:00 25 13 Oeste 29 Oeste 0 -- -- 39
2019-09-02 19:00:00 27.1 15 Oeste 26 Oeste 0 -- -- 35
2019-09-02 18:00:00 27.6 15 Oeste 27 Oeste 0 -- -- 34
2019-09-02 17:00:00 27 17 Oeste 32 Oeste 0 -- -- 38
2019-09-02 16:00:00 26.6 17 Oeste 31 Oeste 0 -- -- 38
2019-09-02 15:00:00 26 13 Oeste 26 Oeste 0 -- -- 41
2019-09-02 14:00:00 24.7 10 Oeste 27 Noroeste 0 -- -- 44
2019-09-02 13:00:00 23.2 14 Oeste 30 Oeste 0 -- -- 47
2019-09-02 12:00:00 21.6 16 Oeste 30 Oeste 0 -- -- 52
2019-09-02 11:00:00 20.2 16 Oeste 31 Oeste 0 -- -- 57
2019-09-02 10:00:00 18.7 17 Oeste 31 Oeste 0 -- -- 60
2019-09-02 09:00:00 16.7 11 Oeste 21 Oeste 0 -- -- 71
2019-09-02 08:00:00 15.3 2 Oeste 16 Oeste 0 -- -- 78
2019-09-02 07:00:00 15.4 8 Oeste 15 Oeste 0 -- -- 79
2019-09-02 06:00:00 16.6 9 Oeste 18 Oeste 0 -- -- 77
2019-09-02 05:00:00 17.7 7 Noroeste 18 Oeste 0 -- -- 76
2019-09-02 04:00:00 18.4 8 Oeste 19 Oeste 0 -- -- 74
2019-09-02 03:00:00 19 5 Oeste 13 Oeste 0 -- -- 72
2019-09-02 02:00:00 20.3 10 Oeste 26 Oeste 0 -- -- 67
2019-09-02 01:00:00 21.3 16 Oeste 32 Oeste 0 -- -- 63
2019-09-02 00:00:00 22 15 Oeste 28 Oeste 0 -- -- 59
2019-09-01 23:00:00 22.9 16 Oeste 27 Oeste 0 -- -- 57
2019-09-01 22:00:00 23.8 14 Oeste 30 Oeste 0 -- -- 54
2019-09-01 21:00:00 25 12 Oeste 24 Oeste 0 -- -- 55
2019-09-01 20:00:00 27.3 10 Oeste 22 Noroeste 0 -- -- 52
2019-09-01 19:00:00 28.2 6 Noroeste 12 Noroeste 0 -- -- 51
2019-09-01 18:00:00 28.8 7 Noroeste 12 Noroeste 0 -- -- 48
2019-09-01 17:00:00 29.5 6 Noroeste 12 Noroeste 0 -- -- 45
2019-09-01 16:00:00 28.9 6 Noroeste 15 Oeste 0 -- -- 47
2019-09-01 15:00:00 28.6 5 Noroeste 12 Noroeste 0 -- -- 47
2019-09-01 14:00:00 28.7 4 Oeste 14 Oeste 0 -- -- 49
2019-09-01 13:00:00 27.3 6 Noroeste 14 Oeste 0 -- -- 51
2019-09-01 12:00:00 25.7 5 Noroeste 17 Noroeste 0 -- -- 57
2019-09-01 11:00:00 23.1 8 Noroeste 18 Noroeste 0 -- -- 71
2019-09-01 10:00:00 20.9 9 Noroeste 17 Noroeste 0 -- -- 80
2019-09-01 09:00:00 19.5 5 Noroeste 13 Noroeste 0 -- -- 85
2019-09-01 08:00:00 18.4 5 Oeste 11 Oeste 0 -- -- 86
2019-09-01 07:00:00 18.9 2 Noroeste 6 Norte 0 -- -- 84
2019-09-01 06:00:00 19.5 0 Calma 9 Sudoeste 0 -- -- 86
2019-09-01 05:00:00 19.7 5 Sudeste 9 Nordeste 0.2 -- -- 81
2019-09-01 04:00:00 19.8 6 Oeste 13 Oeste 0 -- -- 75
2019-09-01 03:00:00 19.9 4 Norte 11 Noroeste 0 -- -- 73
2019-09-01 02:00:00 20.2 6 Norte 13 Noroeste 0 -- -- 71
2019-09-01 01:00:00 21 8 Norte 14 Norte 0 -- -- 67
2019-09-01 00:00:00 21.4 3 Noroeste 6 Noroeste 0 -- -- 69
2019-08-31 23:00:00 22.5 3 Sudoeste 8 Sudoeste 0 -- -- 63
2019-08-31 22:00:00 23.8 5 Sudeste 12 Nordeste 0 -- -- 56
2019-08-31 21:00:00 24.2 6 Nordeste 21 Este 0 -- -- 54
2019-08-31 20:00:00 25 5 Sudeste 23 Sudeste 0 -- -- 59
2019-08-31 19:00:00 26.9 8 Nordeste 33 Norte 0 -- -- 44
2019-08-31 18:00:00 27.4 22 Norte 35 Norte 0 -- -- 43
2019-08-31 17:00:00 30.1 19 Norte 35 Nordeste 0 -- -- 38
2019-08-31 16:00:00 30.7 20 Nordeste 36 Nordeste 0 -- -- 43
2019-08-31 15:00:00 31.6 7 Nordeste 15 Este 0 -- -- 46
2019-08-31 14:00:00 32.1 7 Este 18 Este 0 -- -- 45
2019-08-31 13:00:00 30.9 6 Este 12 Este 0 -- -- 47
2019-08-31 12:00:00 29.1 2 Este 7 Sur 0 -- -- 47
2019-08-31 11:00:00 26.1 3 Sur 6 Este 0 -- -- 55
2019-08-31 10:00:00 22.7 4 Oeste 6 Oeste 0 -- -- 70
2019-08-31 09:00:00 21.1 0 Calma 10 Norte 0 -- -- 71
2019-08-31 08:00:00 18 5 Norte 9 Norte 0 -- -- 84
2019-08-31 07:00:00 18.2 0 Calma 4 Nordeste 0 -- -- 84
2019-08-31 06:00:00 19 3 Oeste 5 Noroeste 0 -- -- 80
2019-08-31 05:00:00 19.6 0 Calma 6 Noroeste 0 -- -- 76
2019-08-31 04:00:00 20.6 4 Norte 8 Norte 0 -- -- 71
2019-08-31 03:00:00 21.2 6 Oeste 11 Este 0 -- -- 76
2019-08-31 02:00:00 23 4 Noroeste 18 Este 0 -- -- 66
2019-08-31 01:00:00 24.1 7 Este 19 Este 0 -- -- 62
2019-08-31 00:00:00 24.3 6 Nordeste 13 Nordeste 0 -- -- 64
2019-08-30 23:00:00 25.6 6 Nordeste 13 Nordeste 0 -- -- 60
2019-08-30 22:00:00 26.7 5 Nordeste 10 Sudeste 0 -- -- 52
2019-08-30 21:00:00 28.2 4 Nordeste 12 Nordeste 0 -- -- 48
2019-08-30 20:00:00 30.9 5 Nordeste 10 Este 0 -- -- 44
2019-08-30 19:00:00 32.4 6 Nordeste 13 Nordeste 0 -- -- 39
2019-08-30 18:00:00 33.3 5 Nordeste 12 Nordeste 0 -- -- 34
2019-08-30 17:00:00 33.6 5 Nordeste 12 Sudeste 0 -- -- 36
2019-08-30 16:00:00 33.3 8 Este 15 Sudeste 0 -- -- 35
2019-08-30 15:00:00 32.8 4 Sur 15 Este 0 -- -- 37
2019-08-30 14:00:00 31.2 5 Nordeste 12 Este 0 -- -- 44
2019-08-30 13:00:00 30 4 Sur 10 Oeste 0 -- -- 50
2019-08-30 12:00:00 28.4 4 Sudeste 8 Este 0 -- -- 51
2019-08-30 11:00:00 25.5 4 Norte 9 Noroeste 0 -- -- 61
2019-08-30 10:00:00 23.1 3 Noroeste 7 Noroeste 0 -- -- 71
2019-08-30 09:00:00 20.5 3 Noroeste 8 Noroeste 0 -- -- 78
2019-08-30 08:00:00 18.5 3 Noroeste 5 Noroeste 0 -- -- 87
2019-08-30 07:00:00 18.7 0 Calma 4 Norte 0 -- -- 85
2019-08-30 06:00:00 19.3 0 Calma 6 Oeste 0 -- -- 84
2019-08-30 05:00:00 19.7 4 Oeste 6 Oeste 0 -- -- 87
2019-08-30 04:00:00 20.3 0 Calma 6 Noroeste 0 -- -- 82
2019-08-30 03:00:00 21.2 3 Noroeste 11 Norte 0 -- -- 78
2019-08-30 02:00:00 22.4 0 Calma 8 Sudeste 0 -- -- 73
2019-08-30 01:00:00 23.3 2 Sudeste 16 Este 0 -- -- 68
2019-08-30 00:00:00 23.9 7 Este 18 Este 0 -- -- 67
2019-08-29 23:00:00 25 3 Norte 22 Nordeste 0 -- -- 57
2019-08-29 22:00:00 26.3 9 Este 17 Este 0 -- -- 55
2019-08-29 21:00:00 28.4 6 Sudeste 9 Sudeste 0 -- -- 54
2019-08-29 20:00:00 31.6 5 Nordeste 10 Nordeste 0 -- -- 40
2019-08-29 19:00:00 32.2 5 Nordeste 10 Nordeste 0 -- -- 42
2019-08-29 18:00:00 31.7 5 Nordeste 12 Este 0 -- -- 39
2019-08-29 17:00:00 32.3 6 Nordeste 14 Sur 0 -- -- 40
2019-08-29 16:00:00 32.5 5 Sudeste 13 Este 0 -- -- 40
2019-08-29 15:00:00 31.4 6 Este 13 Este 0 -- -- 41
2019-08-29 14:00:00 30.4 5 Sur 16 Sur 0 -- -- 47
2019-08-29 13:00:00 28.8 6 Sudeste 12 Este 0 -- -- 51
2019-08-29 12:00:00 27.1 7 Este 14 Sudeste 0 -- -- 56
2019-08-29 11:00:00 24.8 3 Este 6 Oeste 0 -- -- 63
2019-08-29 10:00:00 21.4 3 Oeste 8 Oeste 0 -- -- 77
2019-08-29 09:00:00 19.2 4 Oeste 8 Oeste 0 -- -- 86
2019-08-29 08:00:00 17.7 4 Noroeste 6 Noroeste 0 -- -- 89
2019-08-29 07:00:00 18.1 0 Calma 6 Noroeste 0 -- -- 87
2019-08-29 06:00:00 18.4 2 Noroeste 6 Oeste 0 -- -- 87
2019-08-29 05:00:00 19.3 2 Norte 6 Sudoeste 0 -- -- 84
2019-08-29 04:00:00 20.3 3 Sudoeste 8 Este 0 -- -- 76
2019-08-29 03:00:00 20.6 3 Nordeste 11 Este 0 -- -- 79
2019-08-29 02:00:00 20.8 4 Nordeste 8 Nordeste 0 -- -- 79
2019-08-29 01:00:00 21.9 3 Norte 9 Sudeste 0 -- -- 80
2019-08-29 00:00:00 23.1 4 Sudeste 6 Sudeste 0 -- -- 68
2019-08-28 23:00:00 23.6 4 Este 5 Este 0 -- -- 70
2019-08-28 22:00:00 25.8 2 Este 4 Este 0 -- -- 63
2019-08-28 21:00:00 28 3 Este 5 Norte 0 -- -- 53
2019-08-28 20:00:00 30.5 5 Norte 10 Norte 0 -- -- 46
2019-08-28 19:00:00 31.3 5 Norte 12 Norte 0 -- -- 43
2019-08-28 18:00:00 30.6 5 Este 12 Este 0 -- -- 46
2019-08-28 17:00:00 30.7 4 Norte 12 Sudoeste 0 -- -- 43
2019-08-28 16:00:00 30.9 5 Oeste 14 Sur 0 -- -- 44
2019-08-28 15:00:00 29.6 5 Norte 12 Este 0 -- -- 46
2019-08-28 14:00:00 28.9 4 Sudoeste 12 Oeste 0 -- -- 49
2019-08-28 13:00:00 27 6 Oeste 12 Oeste 0 -- -- 54
2019-08-28 12:00:00 25.1 5 Noroeste 13 Noroeste 0 -- -- 60
2019-08-28 11:00:00 22.8 5 Noroeste 9 Oeste 0 -- -- 72
2019-08-28 10:00:00 20.2 4 Oeste 10 Oeste 0 -- -- 84
2019-08-28 09:00:00 18.2 0 Calma 6 Oeste 0 -- -- 89
2019-08-28 08:00:00 16.7 3 Noroeste 9 Noroeste 0 -- -- 94
2019-08-28 07:00:00 16.7 5 Oeste 9 Oeste 0 -- -- 93
2019-08-28 06:00:00 17.2 3 Noroeste 9 Norte 0 -- -- 92
2019-08-28 05:00:00 17.4 3 Norte 8 Norte 0 -- -- 92
2019-08-28 04:00:00 18 3 Noroeste 5 Noroeste 0 -- -- 91
2019-08-28 03:00:00 18.4 0 Calma 4 Noroeste 0 -- -- 89
2019-08-28 02:00:00 18.7 3 Nordeste 8 Noroeste 0 -- -- 87
2019-08-28 01:00:00 19.4 0 Calma 9 Oeste 0 -- -- 86
2019-08-28 00:00:00 20.2 4 Oeste 7 Oeste 0 -- -- 83
2019-08-27 23:00:00 20.7 6 Norte 11 Norte 0 -- -- 80
2019-08-27 22:00:00 21.1 2 Noroeste 6 Nordeste 0 -- -- 79
2019-08-27 21:00:00 22.1 3 Norte 14 Este 0 -- -- 75
2019-08-27 20:00:00 23.2 9 Nordeste 30 Sudeste 0 -- -- 67
2019-08-27 19:00:00 23.6 18 Este 42 Este 0 -- -- 65
2019-08-27 18:00:00 28 17 Este 30 Este 0 -- -- 52
2019-08-27 17:00:00 28.7 10 Este 20 Sudeste 0 -- -- 48
2019-08-27 16:00:00 28.8 11 Sudeste 22 Sudeste 0 -- -- 49
2019-08-27 15:00:00 28.1 13 Sudeste 27 Sudeste 0 -- -- 53
2019-08-27 14:00:00 26.9 13 Sudeste 26 Este 0 -- -- 54
2019-08-27 13:00:00 26 12 Este 20 Este 0 -- -- 61
2019-08-27 12:00:00 25.4 4 Este 17 Este 0 -- -- 62
2019-08-27 11:00:00 24.4 9 Sudeste 17 Sudeste 0 -- -- 68
2019-08-27 10:00:00 22.1 7 Sudeste 19 Sudeste 0 -- -- 87
2019-08-27 09:00:00 20.2 10 Sudeste 26 Este 0 -- -- 91
2019-08-27 08:00:00 19.7 12 Este 24 Este 0.2 -- -- 89
2019-08-27 07:00:00 19.9 10 Este 19 Este 0.6 -- -- 87
2019-08-27 06:00:00 20.7 8 Este 14 Este 0.4 -- -- 84
2019-08-27 05:00:00 21.8 8 Este 26 Este 0 -- -- 74
2019-08-27 04:00:00 21.4 14 Este 29 Este 0 -- -- 76
2019-08-27 03:00:00 21.5 12 Sur 33 Este 0 -- -- 75
2019-08-27 02:00:00 22.1 11 Este 18 Este 0 -- -- 70
2019-08-27 01:00:00 22.5 11 Nordeste 30 Este 0 -- -- 69
2019-08-27 00:00:00 23 14 Este 29 Este 0 -- -- 65
2019-08-26 23:00:00 23.3 14 Este 25 Este 0 -- -- 57
2019-08-26 22:00:00 24.2 15 Sudeste 24 Sudeste 0 -- -- 52
2019-08-26 21:00:00 25 10 Sudeste 19 Sudeste 0 -- -- 50
2019-08-26 20:00:00 27.5 13 Sudeste 23 Sudeste 0 -- -- 44
2019-08-26 19:00:00 29.3 14 Este 28 Este 0 -- -- 46
2019-08-26 18:00:00 29 15 Este 42 Este 0 -- -- 48
2019-08-26 17:00:00 29.7 19 Este 32 Este 0 -- -- 44
2019-08-26 16:00:00 29.1 15 Este 26 Este 0 -- -- 45
2019-08-26 15:00:00 29.1 10 Este 19 Este 0 -- -- 44
2019-08-26 14:00:00 29.4 10 Este 21 Este 0 -- -- 43
2019-08-26 13:00:00 27.9 9 Este 18 Este 0 -- -- 51
2019-08-26 12:00:00 25.9 10 Este 21 Este 0 -- -- 55
2019-08-26 11:00:00 24.7 7 Este 11 Este 0 -- -- 60
2019-08-26 10:00:00 21.7 2 Sur 6 Sudeste 0 -- -- 75
2019-08-26 09:00:00 19.6 3 Noroeste 8 Oeste 0 -- -- 77
2019-08-26 08:00:00 17.6 3 Oeste 7 Oeste 0 -- -- 85
2019-08-26 07:00:00 17.6 5 Sudoeste 9 Sudoeste 0 -- -- 85
2019-08-26 06:00:00 18.2 0 Calma 12 Oeste 0 -- -- 81
2019-08-26 05:00:00 19.8 0 Calma 6 Este 0 -- -- 73
2019-08-26 04:00:00 20.3 0 Calma 8 Sudeste 0 -- -- 71
2019-08-26 03:00:00 21.8 5 Sudeste 18 Este 0 -- -- 62
2019-08-26 02:00:00 22.7 9 Este 25 Este 0 -- -- 58
2019-08-26 01:00:00 23.3 11 Este 21 Este 0 -- -- 57
2019-08-26 00:00:00 23.6 12 Este 26 Este 0 -- -- 59
2019-08-25 23:00:00 24.3 12 Este 20 Este 0 -- -- 53
2019-08-25 22:00:00 25.4 8 Sudeste 15 Sudeste 0 -- -- 50
2019-08-25 21:00:00 27.2 6 Sudeste 24 Este 0 -- -- 50
2019-08-25 20:00:00 30.9 10 Este 18 Este 0 -- -- 40
2019-08-25 19:00:00 32.8 9 Este 15 Este 0 -- -- 33
2019-08-25 18:00:00 32.7 8 Este 17 Este 0 -- -- 32
2019-08-25 17:00:00 32.7 11 Este 18 Este 0 -- -- 38
2019-08-25 16:00:00 32.3 10 Este 24 Este 0 -- -- 38
2019-08-25 15:00:00 31.8 9 Este 18 Este 0 -- -- 38
2019-08-25 14:00:00 31 9 Este 20 Este 0 -- -- 40
2019-08-25 13:00:00 29.5 9 Este 17 Sudeste 0 -- -- 48
2019-08-25 12:00:00 28.1 9 Sudeste 16 Sudeste 0 -- -- 53
2019-08-25 11:00:00 25.4 8 Este 14 Sudeste 0 -- -- 61
2019-08-25 10:00:00 21.7 0 Calma 5 Sudoeste 0 -- -- 69
2019-08-25 09:00:00 19.3 4 Oeste 6 Noroeste 0 -- -- 80
2019-08-25 08:00:00 17.8 4 Noroeste 5 Oeste 0 -- -- 85
2019-08-25 07:00:00 17.9 3 Noroeste 6 Oeste 0 -- -- 84
2019-08-25 06:00:00 18.6 4 Oeste 9 Oeste 0 -- -- 81
2019-08-25 05:00:00 19.7 3 Sudoeste 6 Sudoeste 0 -- -- 79
2019-08-25 04:00:00 20.9 3 Norte 12 Sudeste 0 -- -- 67
2019-08-25 03:00:00 21.8 9 Este 22 Este 0 -- -- 65
2019-08-25 02:00:00 22.3 13 Este 22 Este 0 -- -- 64
2019-08-25 01:00:00 23 8 Nordeste 19 Este 0 -- -- 65
2019-08-25 00:00:00 24.1 9 Este 14 Este 0 -- -- 59
2019-08-24 23:00:00 24.8 4 Este 12 Sudeste 0 -- -- 57
2019-08-24 22:00:00 26 4 Este 9 Este 0 -- -- 50
2019-08-24 21:00:00 29 5 Este 6 Este 0 -- -- 46
2019-08-24 20:00:00 32.7 0 Calma 7 Nordeste 0 -- -- 38
2019-08-24 19:00:00 32.9 4 Este 10 Este 0 -- -- 33
2019-08-24 18:00:00 32.3 5 Sudeste 11 Este 0 -- -- 34
2019-08-24 17:00:00 32.7 7 Nordeste 15 Sudeste 0 -- -- 30
2019-08-24 16:00:00 32.1 9 Este 17 Sudeste 0 -- -- 38
2019-08-24 15:00:00 31.8 6 Sudeste 15 Nordeste 0 -- -- 42
2019-08-24 14:00:00 30.7 5 Sudeste 14 Este 0 -- -- 48
2019-08-24 13:00:00 29 6 Sudeste 16 Sudeste 0 -- -- 50
2019-08-24 12:00:00 27.4 9 Este 17 Este 0 -- -- 52
2019-08-24 11:00:00 25.1 5 Sudeste 11 Sudeste 0 -- -- 62
2019-08-24 10:00:00 22 0 Calma 5 Norte 0 -- -- 75
2019-08-24 09:00:00 19.1 3 Noroeste 5 Noroeste 0 -- -- 84
2019-08-24 08:00:00 17.3 2 Noroeste 8 Noroeste 0 -- -- 89
2019-08-24 07:00:00 17.4 4 Oeste 8 Oeste 0 -- -- 89
2019-08-24 06:00:00 17.8 3 Noroeste 9 Noroeste 0 -- -- 87
2019-08-24 05:00:00 18.4 2 Noroeste 6 Oeste 0 -- -- 85
2019-08-24 04:00:00 19.1 6 Oeste 7 Oeste 0 -- -- 84
2019-08-24 03:00:00 20.4 0 Calma 10 Sudeste 0 -- -- 74
2019-08-24 02:00:00 21 3 Nordeste 13 Nordeste 0 -- -- 76
2019-08-24 01:00:00 21.9 6 Este 15 Este 0 -- -- 74
2019-08-24 00:00:00 22.4 5 Este 11 Este 0 -- -- 72
2019-08-23 23:00:00 23.6 5 Este 10 Sudeste 0 -- -- 62
2019-08-23 22:00:00 24.7 3 Este 9 Este 0 -- -- 46
2019-08-23 21:00:00 27.2 3 Este 8 Este 0 -- -- 45
2019-08-23 20:00:00 31 4 Este 9 Nordeste 0 -- -- 39
2019-08-23 19:00:00 31.7 6 Nordeste 11 Nordeste 0 -- -- 29
2019-08-23 18:00:00 31.2 7 Nordeste 12 Este 0 -- -- 29
2019-08-23 17:00:00 31.4 6 Este 17 Este 0 -- -- 37
2019-08-23 16:00:00 31 4 Norte 16 Este 0 -- -- 37
2019-08-23 15:00:00 30.5 8 Sudeste 14 Sudeste 0 -- -- 41
2019-08-23 14:00:00 29.8 6 Este 14 Este 0 -- -- 46
2019-08-23 13:00:00 28.1 8 Este 14 Sudeste 0 -- -- 57
2019-08-23 12:00:00 26.6 7 Sudeste 14 Sudeste 0 -- -- 59
2019-08-23 11:00:00 24.1 4 Sudeste 8 Sudeste 0 -- -- 69
2019-08-23 10:00:00 20.2 3 Noroeste 10 Oeste 0 -- -- 79
2019-08-23 09:00:00 18.2 6 Oeste 12 Oeste 0 -- -- 87
2019-08-23 08:00:00 16.4 3 Norte 8 Oeste 0 -- -- 90
2019-08-23 07:00:00 16.4 4 Oeste 8 Oeste 0 -- -- 90
2019-08-23 06:00:00 17.1 3 Noroeste 9 Oeste 0 -- -- 90
2019-08-23 05:00:00 17.8 5 Oeste 8 Oeste 0 -- -- 88
2019-08-23 04:00:00 18.8 3 Sudoeste 8 Sudeste 0 -- -- 85
2019-08-23 03:00:00 19.7 3 Sur 10 Sudeste 0 -- -- 81
2019-08-23 02:00:00 19.9 5 Este 10 Este 0 -- -- 77
2019-08-23 01:00:00 20.5 0 Calma 5 Nordeste 0 -- -- 76
2019-08-23 00:00:00 21.3 2 Norte 6 Nordeste 0 -- -- 71